createdAt,value
2023-04-11T00:00:28.595Z,76.00
2023-04-11T00:01:32.204Z,80.60
2023-04-11T00:02:39.177Z,80.30
2023-04-11T00:03:41.265Z,81.80
2023-04-11T00:04:43.437Z,79.00
2023-04-11T00:05:45.560Z,77.00
2023-04-11T00:06:48.407Z,80.30
2023-04-11T00:07:50.878Z,77.10
2023-04-11T00:08:53.335Z,77.40
2023-04-11T00:09:55.296Z,76.00
2023-04-11T00:10:57.082Z,75.20
2023-04-11T00:11:58.812Z,77.50
2023-04-11T00:13:00.607Z,75.80
2023-04-11T00:14:02.456Z,76.40
2023-04-11T00:15:05.079Z,77.30
2023-04-11T00:16:07.831Z,79.00
2023-04-11T00:17:12.462Z,79.50
2023-04-11T00:18:14.316Z,79.50
2023-04-11T00:19:16.371Z,81.50
2023-04-11T00:20:18.126Z,81.80
2023-04-11T00:21:19.852Z,82.20
2023-04-11T00:22:24.458Z,80.50
2023-04-11T00:23:26.184Z,81.70
2023-04-11T00:24:27.878Z,81.30
2023-04-11T00:25:30.259Z,80.90
2023-04-11T00:26:32.160Z,83.30
2023-04-11T00:27:33.937Z,84.20
2023-04-11T00:28:35.987Z,85.70
2023-04-11T00:29:37.901Z,84.30
2023-04-11T00:30:40.081Z,86.90
2023-04-11T00:31:41.768Z,86.00
2023-04-11T00:32:46.010Z,89.00
2023-04-11T00:33:47.824Z,88.00
2023-04-11T00:34:49.568Z,92.10
2023-04-11T00:35:51.676Z,91.90
2023-04-11T00:36:53.840Z,94.80
2023-04-11T00:37:56.319Z,93.00
2023-04-11T00:39:06.985Z,95.00
2023-04-11T00:40:09.041Z,93.30
2023-04-11T00:41:11.036Z,94.50
2023-04-11T00:42:12.792Z,93.40
2023-04-11T00:43:14.576Z,85.40
2023-04-11T00:44:16.306Z,92.00
2023-04-11T00:45:18.220Z,88.00
2023-04-11T00:46:21.401Z,88.00
2023-04-11T00:47:23.257Z,84.70
2023-04-11T00:48:28.295Z,82.60
2023-04-11T00:49:31.984Z,78.40
2023-04-11T00:50:33.778Z,82.90
2023-04-11T00:51:35.824Z,84.10
2023-04-11T00:52:38.492Z,84.80
2023-04-11T00:53:40.884Z,87.40
2023-04-11T00:54:42.708Z,85.40
2023-04-11T00:55:44.477Z,80.60
2023-04-11T00:56:46.372Z,81.50
2023-04-11T00:57:48.220Z,80.50
2023-04-11T00:58:49.963Z,80.30
2023-04-11T00:59:52.076Z,81.30
2023-04-11T01:00:54.053Z,80.40
2023-04-11T01:01:57.033Z,86.00
2023-04-11T01:02:59.135Z,87.40
2023-04-11T01:04:01.465Z,84.10
2023-04-11T01:05:07.952Z,80.00
2023-04-11T01:06:13.058Z,81.00
2023-04-11T01:07:16.236Z,84.70
2023-04-11T01:08:19.244Z,85.60
2023-04-11T01:09:23.707Z,79.20
2023-04-11T01:10:28.936Z,77.90
2023-04-11T01:11:32.528Z,77.10
2023-04-11T01:12:35.016Z,77.30
2023-04-11T01:13:40.339Z,75.20
2023-04-11T01:14:42.441Z,76.30
2023-04-11T01:15:44.215Z,75.00
2023-04-11T01:16:50.798Z,78.00
2023-04-11T01:17:55.669Z,77.90
2023-04-11T01:18:57.823Z,78.30
2023-04-11T01:20:00.357Z,74.90
2023-04-11T01:21:02.734Z,75.20
2023-04-11T01:22:04.823Z,74.10
2023-04-11T01:23:08.625Z,77.30
2023-04-11T01:24:11.620Z,76.00
2023-04-11T01:25:15.636Z,78.20
2023-04-11T01:26:17.397Z,76.50
2023-04-11T01:27:19.731Z,78.10
2023-04-11T01:28:22.043Z,80.70
2023-04-11T01:29:23.816Z,79.50
2023-04-11T01:30:25.737Z,77.20
2023-04-11T01:31:27.915Z,74.60
2023-04-11T01:32:29.608Z,73.80
2023-04-11T01:33:31.417Z,74.20
2023-04-11T01:34:35.192Z,75.10
2023-04-11T01:35:37.312Z,74.50
2023-04-11T01:36:39.710Z,74.90
2023-04-11T01:37:41.614Z,76.30
2023-04-11T01:38:43.522Z,77.30
2023-04-11T01:39:45.393Z,81.50
2023-04-11T01:40:47.624Z,80.30
2023-04-11T01:41:50.053Z,86.70
2023-04-11T01:42:52.739Z,85.60
2023-04-11T01:43:54.548Z,85.30
2023-04-11T01:44:56.719Z,92.40
2023-04-11T01:45:59.027Z,95.00
2023-04-11T01:47:01.524Z,98.40
2023-04-11T01:48:09.222Z,99.90
2023-04-11T01:49:15.467Z,99.90
2023-04-11T01:50:17.298Z,99.90
2023-04-11T01:51:18.957Z,99.90
2023-04-11T01:52:20.649Z,99.90
2023-04-11T01:53:22.445Z,99.90
2023-04-11T01:54:24.184Z,99.90
2023-04-11T01:55:26.303Z,99.90
2023-04-11T01:56:28.086Z,99.90
2023-04-11T01:57:29.828Z,99.90
2023-04-11T01:58:31.546Z,99.90
2023-04-11T01:59:33.259Z,99.90
2023-04-11T02:00:36.977Z,99.90
2023-04-11T02:01:41.344Z,99.90
2023-04-11T02:02:43.259Z,99.90
2023-04-11T02:03:45.835Z,99.90
2023-04-11T02:04:47.651Z,99.90
2023-04-11T02:05:49.388Z,99.90
2023-04-11T02:06:51.148Z,99.90
2023-04-11T02:07:52.887Z,99.90
2023-04-11T02:08:55.131Z,99.90
2023-04-11T02:09:57.970Z,99.90
2023-04-11T02:10:59.738Z,99.90
2023-04-11T02:12:01.469Z,99.90
2023-04-11T02:13:03.472Z,99.90
2023-04-11T02:14:06.338Z,99.90
2023-04-11T02:15:08.811Z,99.90
2023-04-11T02:16:15.200Z,99.90
2023-04-11T02:17:18.480Z,99.90
2023-04-11T02:18:20.486Z,99.90
2023-04-11T02:19:23.441Z,99.90
2023-04-11T02:20:25.232Z,99.90
2023-04-11T02:21:28.232Z,99.90
2023-04-11T02:22:29.913Z,99.90
2023-04-11T02:23:31.626Z,99.90
2023-04-11T02:24:33.432Z,99.90
2023-04-11T02:25:35.236Z,99.90
2023-04-11T02:26:36.963Z,99.90
2023-04-11T02:27:38.838Z,99.90
2023-04-11T02:28:40.564Z,99.90
2023-04-11T02:29:42.335Z,99.90
2023-04-11T02:30:44.169Z,99.90
2023-04-11T02:31:49.348Z,99.90
2023-04-11T02:32:51.452Z,99.90
2023-04-11T02:33:53.211Z,99.90
2023-04-11T02:34:54.941Z,99.90
2023-04-11T02:35:56.758Z,99.90
2023-04-11T02:36:58.526Z,99.90
2023-04-11T02:38:00.645Z,99.90
2023-04-11T02:39:02.548Z,99.90
2023-04-11T02:40:04.992Z,99.90
2023-04-11T02:41:08.444Z,99.90
2023-04-11T02:42:11.928Z,99.90
2023-04-11T02:43:13.966Z,99.90
2023-04-11T02:44:15.904Z,99.90
2023-04-11T02:45:17.611Z,99.90
2023-04-11T02:46:19.328Z,99.90
2023-04-11T02:47:21.362Z,99.90
2023-04-11T02:48:23.147Z,99.90
2023-04-11T02:49:25.006Z,99.90
2023-04-11T02:50:27.199Z,99.90
2023-04-11T02:51:29.216Z,99.90
2023-04-11T02:52:33.464Z,99.90
2023-04-11T02:53:35.842Z,99.90
2023-04-11T02:54:37.672Z,99.90
2023-04-11T02:55:39.347Z,99.90
2023-04-11T02:56:41.224Z,99.90
2023-04-11T02:57:42.929Z,99.90
2023-04-11T02:58:45.703Z,99.90
2023-04-11T02:59:47.464Z,99.90
2023-04-11T03:00:49.736Z,99.90
2023-04-11T03:01:58.227Z,99.90
2023-04-11T03:03:00.659Z,99.90
2023-04-11T03:04:02.563Z,99.90
2023-04-11T03:05:05.212Z,99.90
2023-04-11T03:06:07.483Z,99.90
2023-04-11T03:07:09.157Z,99.90
2023-04-11T03:08:10.843Z,99.90
2023-04-11T03:09:12.525Z,99.90
2023-04-11T03:10:14.232Z,99.90
2023-04-11T03:11:16.695Z,99.90
2023-04-11T03:12:20.043Z,99.90
2023-04-11T03:13:21.772Z,99.90
2023-04-11T03:14:23.505Z,99.90
2023-04-11T03:15:25.221Z,99.90
2023-04-11T03:16:28.224Z,99.90
2023-04-11T03:17:30.084Z,99.90
2023-04-11T03:18:31.782Z,99.90
2023-04-11T03:19:33.471Z,99.90
2023-04-11T03:20:35.242Z,99.90
2023-04-11T03:21:36.959Z,99.90
2023-04-11T03:22:39.136Z,99.90
2023-04-11T03:23:40.881Z,99.90
2023-04-11T03:24:42.751Z,99.90
2023-04-11T03:25:45.594Z,99.90
2023-04-11T03:26:47.281Z,99.90
2023-04-11T03:27:49.084Z,99.90
2023-04-11T03:28:50.946Z,99.90
2023-04-11T03:29:52.626Z,99.90
2023-04-11T03:30:55.140Z,99.90
2023-04-11T03:31:56.881Z,99.90
2023-04-11T03:33:02.445Z,99.90
2023-04-11T03:34:04.130Z,99.90
2023-04-11T03:35:06.129Z,99.90
2023-04-11T03:36:08.215Z,99.90
2023-04-11T03:37:10.006Z,99.90
2023-04-11T03:38:11.787Z,99.90
2023-04-11T03:39:13.562Z,99.90
2023-04-11T03:40:15.253Z,99.90
2023-04-11T03:41:17.081Z,99.90
2023-04-11T03:42:18.883Z,99.90
2023-04-11T03:43:20.983Z,99.90
2023-04-11T03:44:22.789Z,99.90
2023-04-11T03:45:24.452Z,99.90
2023-04-11T03:46:26.192Z,99.90
2023-04-11T03:47:27.937Z,99.90
2023-04-11T03:48:31.038Z,99.90
2023-04-11T03:49:32.929Z,99.90
2023-04-11T03:50:34.649Z,99.90
2023-04-11T03:51:36.444Z,99.90
2023-04-11T03:52:38.217Z,99.90
2023-04-11T03:53:39.980Z,99.90
2023-04-11T03:54:41.732Z,99.90
2023-04-11T03:55:43.551Z,99.90
2023-04-11T03:56:45.272Z,99.90
2023-04-11T03:57:47.007Z,99.90
2023-04-11T03:58:48.784Z,99.90
2023-04-11T03:59:50.668Z,99.90
2023-04-11T04:00:52.363Z,99.90
2023-04-11T04:01:54.348Z,99.90
2023-04-11T04:02:56.335Z,99.90
2023-04-11T04:04:00.674Z,99.90
2023-04-11T04:05:02.844Z,99.90
2023-04-11T04:06:04.790Z,99.90
2023-04-11T04:07:06.801Z,99.90
2023-04-11T04:08:08.567Z,99.90
2023-04-11T04:09:10.400Z,99.90
2023-04-11T04:10:12.216Z,99.90
2023-04-11T04:11:13.972Z,99.90
2023-04-11T04:12:18.177Z,99.90
2023-04-11T04:13:19.985Z,99.90
2023-04-11T04:14:21.689Z,99.90
2023-04-11T04:15:23.419Z,99.90
2023-04-11T04:16:25.753Z,99.90
2023-04-11T04:17:27.512Z,99.90
2023-04-11T04:18:29.254Z,99.90
2023-04-11T04:19:31.057Z,99.90
2023-04-11T04:20:32.819Z,99.90
2023-04-11T04:21:38.077Z,99.90
2023-04-11T04:22:39.905Z,99.90
2023-04-11T04:23:47.311Z,99.90
2023-04-11T04:24:49.240Z,99.90
2023-04-11T04:25:51.361Z,99.90
2023-04-11T04:26:53.986Z,99.90
2023-04-11T04:27:58.142Z,99.90
2023-04-11T04:29:04.563Z,99.90
2023-04-11T04:30:07.072Z,99.90
2023-04-11T04:31:08.733Z,99.90
2023-04-11T04:32:13.425Z,99.90
2023-04-11T04:33:18.633Z,99.90
2023-04-11T04:34:21.734Z,99.90
2023-04-11T04:35:23.857Z,99.90
2023-04-11T04:36:25.626Z,99.90
2023-04-11T04:37:28.083Z,99.90
2023-04-11T04:38:30.958Z,99.90
2023-04-11T04:39:34.075Z,99.90
2023-04-11T04:40:38.099Z,99.90
2023-04-11T04:41:39.812Z,99.90
2023-04-11T04:42:43.098Z,99.90
2023-04-11T04:43:44.864Z,99.90
2023-04-11T04:44:46.580Z,99.90
2023-04-11T04:45:48.331Z,99.90
2023-04-11T04:46:56.889Z,99.90
2023-04-11T04:47:58.618Z,99.90
2023-04-11T04:49:02.167Z,99.90
2023-04-11T04:50:04.402Z,99.90
2023-04-11T04:51:07.288Z,99.90
2023-04-11T04:52:09.024Z,99.90
2023-04-11T04:53:10.781Z,99.90
2023-04-11T04:54:12.526Z,99.90
2023-04-11T04:55:14.428Z,99.90
2023-04-11T04:56:16.355Z,99.90
2023-04-11T04:57:18.197Z,99.90
2023-04-11T04:58:19.920Z,99.90
2023-04-11T04:59:21.652Z,99.90
2023-04-11T05:00:23.444Z,99.90
2023-04-11T05:01:28.076Z,99.90
2023-04-11T05:02:30.905Z,99.90
2023-04-11T05:03:35.528Z,99.90
2023-04-11T05:04:37.406Z,99.90
2023-04-11T05:05:39.126Z,99.90
2023-04-11T05:06:40.798Z,99.90
2023-04-11T05:07:42.628Z,99.90
2023-04-11T05:08:44.299Z,99.90
2023-04-11T05:09:46.135Z,99.90
2023-04-11T05:10:47.886Z,99.90
2023-04-11T05:11:50.433Z,99.90
2023-04-11T05:12:53.554Z,99.90
2023-04-11T05:13:55.771Z,99.90
2023-04-11T05:14:57.677Z,99.90
2023-04-11T05:15:59.468Z,99.90
2023-04-11T05:17:01.350Z,99.90
2023-04-11T05:18:03.395Z,99.90
2023-04-11T05:19:05.300Z,99.90
2023-04-11T05:20:09.039Z,99.90
2023-04-11T05:21:11.384Z,99.90
2023-04-11T05:22:13.179Z,99.90
2023-04-11T05:23:14.849Z,99.90
2023-04-11T05:24:16.694Z,99.90
2023-04-11T05:25:18.419Z,99.90
2023-04-11T05:26:20.211Z,99.90
2023-04-11T05:27:21.917Z,99.90
2023-04-11T05:28:23.595Z,99.90
2023-04-11T05:29:25.926Z,99.90
2023-04-11T05:30:27.719Z,99.90
2023-04-11T05:31:29.418Z,99.90
2023-04-11T05:32:31.141Z,99.90
2023-04-11T05:33:34.107Z,99.90
2023-04-11T05:34:51.736Z,99.90
2023-04-11T05:35:53.798Z,99.90
2023-04-11T05:36:55.630Z,99.90
2023-04-11T05:37:58.388Z,99.90
2023-04-11T05:39:00.890Z,99.90
2023-04-11T05:40:02.657Z,99.90
2023-04-11T05:41:04.597Z,99.90
2023-04-11T05:42:08.024Z,99.90
2023-04-11T05:43:13.494Z,99.90
2023-04-11T05:44:15.195Z,99.90
2023-04-11T05:45:17.032Z,99.90
2023-04-11T05:46:18.800Z,99.90
2023-04-11T05:47:20.642Z,99.90
2023-04-11T05:48:23.889Z,99.90
2023-04-11T05:49:25.562Z,99.90
2023-04-11T05:50:27.306Z,99.90
2023-04-11T05:51:28.993Z,99.90
2023-04-11T05:52:30.730Z,99.90
2023-04-11T05:53:32.541Z,99.90
2023-04-11T05:54:36.673Z,99.90
2023-04-11T05:55:38.404Z,99.90
2023-04-11T05:56:42.327Z,99.90
2023-04-11T05:57:44.181Z,99.90
2023-04-11T05:58:45.870Z,99.90
2023-04-11T05:59:49.884Z,99.90
2023-04-11T06:00:51.851Z,99.90
2023-04-11T06:01:54.448Z,99.90
2023-04-11T06:02:56.589Z,99.90
2023-04-11T06:03:58.616Z,99.90
2023-04-11T06:05:01.643Z,99.90
2023-04-11T06:06:03.660Z,99.90
2023-04-11T06:07:05.467Z,99.90
2023-04-11T06:08:08.474Z,99.90
2023-04-11T06:09:10.825Z,99.90
2023-04-11T06:10:12.790Z,99.90
2023-04-11T06:11:14.505Z,99.90
2023-04-11T06:12:16.302Z,99.90
2023-04-11T06:13:18.101Z,99.90
2023-04-11T06:14:19.816Z,99.90
2023-04-11T06:15:23.131Z,99.90
2023-04-11T06:16:24.890Z,99.90
2023-04-11T06:17:26.722Z,99.90
2023-04-11T06:18:28.481Z,99.90
2023-04-11T06:19:30.263Z,99.90
2023-04-11T06:20:32.046Z,99.90
2023-04-11T06:21:33.776Z,99.90
2023-04-11T06:22:35.500Z,99.90
2023-04-11T06:23:37.211Z,99.90
2023-04-11T06:24:40.749Z,99.90
2023-04-11T06:25:42.552Z,99.90
2023-04-11T06:26:44.770Z,99.90
2023-04-11T06:27:47.006Z,99.90
2023-04-11T06:28:48.736Z,99.90
2023-04-11T06:29:50.497Z,99.90
2023-04-11T06:30:52.413Z,99.90
2023-04-11T06:31:55.964Z,99.90
2023-04-11T06:32:58.562Z,99.90
2023-04-11T06:34:03.944Z,99.90
2023-04-11T06:35:06.735Z,99.90
2023-04-11T06:36:08.937Z,99.90
2023-04-11T06:37:10.968Z,99.90
2023-04-11T06:38:12.667Z,99.90
2023-04-11T06:39:14.373Z,99.90
2023-04-11T06:40:17.256Z,99.90
2023-04-11T06:41:19.229Z,99.90
2023-04-11T06:42:21.279Z,99.90
2023-04-11T06:43:22.953Z,99.90
2023-04-11T06:44:24.940Z,99.90
2023-04-11T06:45:26.756Z,99.90
2023-04-11T06:46:28.518Z,99.90
2023-04-11T06:47:30.346Z,99.90
2023-04-11T06:48:32.032Z,99.90
2023-04-11T06:49:33.772Z,99.90
2023-04-11T06:50:39.585Z,99.90
2023-04-11T06:51:41.271Z,99.90
2023-04-11T06:52:43.238Z,99.90
2023-04-11T06:53:45.376Z,99.90
2023-04-11T06:54:48.370Z,99.90
2023-04-11T06:55:50.176Z,99.90
2023-04-11T06:56:52.351Z,99.90
2023-04-11T06:57:54.412Z,99.90
2023-04-11T06:58:56.274Z,99.90
2023-04-11T06:59:57.990Z,99.90
2023-04-11T07:00:59.669Z,99.90
2023-04-11T07:02:01.496Z,99.90
2023-04-11T07:03:07.740Z,99.90
2023-04-11T07:04:09.726Z,99.90
2023-04-11T07:05:12.019Z,99.90
2023-04-11T07:06:13.751Z,99.90
2023-04-11T07:07:15.467Z,99.90
2023-04-11T07:08:17.259Z,99.90
2023-04-11T07:09:19.027Z,99.90
2023-04-11T07:10:20.985Z,99.90
2023-04-11T07:11:23.096Z,99.90
2023-04-11T07:12:24.828Z,99.90
2023-04-11T07:13:26.552Z,99.90
2023-04-11T07:14:28.337Z,99.90
2023-04-11T07:15:30.166Z,99.90
2023-04-11T07:16:32.557Z,99.90
2023-04-11T07:17:34.352Z,99.90
2023-04-11T07:18:36.115Z,99.90
2023-04-11T07:19:37.853Z,99.90
2023-04-11T07:20:39.537Z,99.90
2023-04-11T07:21:41.873Z,99.90
2023-04-11T07:22:43.764Z,99.90
2023-04-11T07:23:45.727Z,99.90
2023-04-11T07:24:52.109Z,99.90
2023-04-11T07:25:54.485Z,99.90
2023-04-11T07:26:58.729Z,99.90
2023-04-11T07:28:00.977Z,99.90
2023-04-11T07:29:02.796Z,99.90
2023-04-11T07:30:04.922Z,99.90
2023-04-11T07:31:11.234Z,99.90
2023-04-11T07:32:12.997Z,99.90
2023-04-11T07:33:14.724Z,99.90
2023-04-11T07:34:17.277Z,99.90
2023-04-11T07:35:19.376Z,99.90
2023-04-11T07:36:21.116Z,99.90
2023-04-11T07:37:22.899Z,99.90
2023-04-11T07:38:29.514Z,99.90
2023-04-11T07:39:33.127Z,99.90
2023-04-11T07:40:34.892Z,99.90
2023-04-11T07:41:37.209Z,99.90
2023-04-11T07:42:38.947Z,99.90
2023-04-11T07:43:40.777Z,99.90
2023-04-11T07:44:42.582Z,99.90
2023-04-11T07:45:44.366Z,99.90
2023-04-11T07:46:46.271Z,99.90
2023-04-11T07:47:48.427Z,99.90
2023-04-11T07:48:50.196Z,99.90
2023-04-11T07:49:52.280Z,99.90
2023-04-11T07:50:54.701Z,99.90
2023-04-11T07:51:56.677Z,99.90
2023-04-11T07:52:58.439Z,99.90
2023-04-11T07:54:00.129Z,99.90
2023-04-11T07:55:02.072Z,99.90
2023-04-11T07:56:05.012Z,99.90
2023-04-11T07:57:06.726Z,99.90
2023-04-11T07:58:08.794Z,99.90
2023-04-11T07:59:13.157Z,99.90
2023-04-11T08:00:22.822Z,99.90
2023-04-11T08:01:25.835Z,99.90
2023-04-11T08:02:27.806Z,99.90
2023-04-11T08:03:30.100Z,99.90
2023-04-11T08:04:33.805Z,99.90
2023-04-11T08:05:37.101Z,99.90
2023-04-11T08:06:39.022Z,99.90
2023-04-11T08:07:41.826Z,99.90
2023-04-11T08:08:44.191Z,99.90
2023-04-11T08:09:46.004Z,99.90
2023-04-11T08:10:48.577Z,99.90
2023-04-11T08:11:51.186Z,99.90
2023-04-11T08:12:53.016Z,99.90
2023-04-11T08:13:55.102Z,99.90
2023-04-11T08:14:57.102Z,99.90
2023-04-11T08:15:58.861Z,99.90
2023-04-11T08:17:01.038Z,99.90
2023-04-11T08:18:05.125Z,99.90
2023-04-11T08:19:07.000Z,99.90
2023-04-11T08:20:09.479Z,99.90
2023-04-11T08:21:12.037Z,99.90
2023-04-11T08:22:13.722Z,99.90
2023-04-11T08:23:15.678Z,99.90
2023-04-11T08:24:17.423Z,99.90
2023-04-11T08:25:24.966Z,99.90
2023-04-11T08:26:26.805Z,99.90
2023-04-11T08:27:28.575Z,99.90
2023-04-11T08:28:30.783Z,99.90
2023-04-11T08:29:32.585Z,99.90
2023-04-11T08:30:34.293Z,99.90
2023-04-11T08:31:36.127Z,99.90
2023-04-11T08:32:38.626Z,99.90
2023-04-11T08:33:40.393Z,99.90
2023-04-11T08:34:42.266Z,99.90
2023-04-11T08:35:43.989Z,99.90
2023-04-11T08:36:45.766Z,99.90
2023-04-11T08:37:49.109Z,99.90
2023-04-11T08:38:51.004Z,99.90
2023-04-11T08:39:52.718Z,99.90
2023-04-11T08:40:55.285Z,99.90
2023-04-11T08:41:56.995Z,99.90
2023-04-11T08:43:02.761Z,99.90
2023-04-11T08:44:04.524Z,99.90
2023-04-11T08:45:08.695Z,99.90
2023-04-11T08:46:12.673Z,99.90
2023-04-11T08:47:15.970Z,99.90
2023-04-11T08:48:19.525Z,99.90
2023-04-11T08:49:21.255Z,99.90
2023-04-11T08:50:23.024Z,98.20
2023-04-11T08:51:28.740Z,99.90
2023-04-11T08:52:31.663Z,99.40
2023-04-11T08:53:36.549Z,97.60
2023-04-11T08:54:38.340Z,99.90
2023-04-11T08:55:47.100Z,99.90
2023-04-11T08:56:48.850Z,96.30
2023-04-11T08:57:50.614Z,99.90
2023-04-11T08:58:52.342Z,96.60
2023-04-11T09:00:13.678Z,98.50
2023-04-11T09:01:36.980Z,97.10
2023-04-11T09:02:55.061Z,93.10
2023-04-11T09:03:57.538Z,92.50
2023-04-11T09:04:59.550Z,93.60
2023-04-11T09:06:10.493Z,94.90
2023-04-11T09:07:12.628Z,91.70
2023-04-11T09:08:16.051Z,93.60
2023-04-11T09:09:29.723Z,91.90
2023-04-11T09:10:31.882Z,91.20
2023-04-11T09:11:55.679Z,85.90
2023-04-11T09:12:57.562Z,87.60
2023-04-11T09:14:11.597Z,87.50
2023-04-11T09:15:30.758Z,88.20
2023-04-11T09:16:32.734Z,86.80
2023-04-11T09:17:41.893Z,79.90
2023-04-11T09:18:46.350Z,84.10
2023-04-11T09:19:49.308Z,84.30
2023-04-11T09:21:03.094Z,74.10
2023-04-11T09:22:06.142Z,76.80
2023-04-11T09:23:24.248Z,74.00
2023-04-11T09:24:28.555Z,77.10
2023-04-11T09:25:42.388Z,77.50
2023-04-11T09:26:44.266Z,80.80
2023-04-11T09:27:46.565Z,81.60
2023-04-11T09:28:55.084Z,78.00
2023-04-11T09:29:56.864Z,83.70
2023-04-11T09:30:58.588Z,81.20
2023-04-11T09:32:00.450Z,79.50
2023-04-11T09:33:19.489Z,80.00
2023-04-11T09:34:27.776Z,80.10
2023-04-11T09:35:29.548Z,79.40
2023-04-11T09:36:31.299Z,83.10
2023-04-11T09:37:54.524Z,81.60
2023-04-11T09:38:57.254Z,80.00
2023-04-11T09:39:59.800Z,78.30
2023-04-11T09:41:03.061Z,85.90
2023-04-11T09:42:24.263Z,81.70
2023-04-11T09:43:26.171Z,77.80
2023-04-11T09:44:38.404Z,81.80
2023-04-11T09:45:51.750Z,80.80
2023-04-11T09:46:57.238Z,81.30
2023-04-11T09:47:59.804Z,84.10
2023-04-11T09:49:02.166Z,79.80
2023-04-11T09:50:04.614Z,77.40
2023-04-11T09:51:07.125Z,81.10
2023-04-11T09:52:08.945Z,78.90
2023-04-11T09:53:11.165Z,76.90
2023-04-11T09:54:12.962Z,80.20
2023-04-11T09:55:22.469Z,79.00
2023-04-11T09:56:26.460Z,74.70
2023-04-11T09:57:30.228Z,80.10
2023-04-11T09:58:34.641Z,82.50
2023-04-11T09:59:39.048Z,77.00
2023-04-11T10:00:43.628Z,79.70
2023-04-11T10:01:45.512Z,75.50
2023-04-11T10:02:49.997Z,74.50
2023-04-11T10:03:52.743Z,72.40
2023-04-11T10:04:55.222Z,70.20
2023-04-11T10:05:58.074Z,70.70
2023-04-11T10:07:03.762Z,70.10
2023-04-11T10:08:08.303Z,69.50
2023-04-11T10:09:13.034Z,70.20
2023-04-11T10:10:20.341Z,67.20
2023-04-11T10:11:24.333Z,71.20
2023-04-11T10:12:33.407Z,69.30
2023-04-11T10:13:45.930Z,71.80
2023-04-11T10:14:47.817Z,79.10
2023-04-11T10:16:12.406Z,73.30
2023-04-11T10:17:23.639Z,74.60
2023-04-11T10:18:26.471Z,72.00
2023-04-11T10:19:28.161Z,70.40
2023-04-11T10:20:38.393Z,73.20
2023-04-11T10:21:42.692Z,69.30
2023-04-11T10:22:59.134Z,68.00
2023-04-11T10:24:17.229Z,67.40
2023-04-11T10:25:20.563Z,66.90
2023-04-11T10:26:48.614Z,67.20
2023-04-11T10:28:00.631Z,66.90
2023-04-11T10:29:02.477Z,68.80
2023-04-11T10:30:04.513Z,66.90
2023-04-11T10:31:17.646Z,69.20
2023-04-11T10:32:22.016Z,70.30
2023-04-11T10:33:26.864Z,68.30
2023-04-11T10:34:28.676Z,71.90
2023-04-11T10:35:31.063Z,69.60
2023-04-11T10:37:06.056Z,69.50
2023-04-11T10:38:37.095Z,79.90
2023-04-11T10:39:53.693Z,76.50
2023-04-11T10:41:23.316Z,77.30
2023-04-11T10:42:45.662Z,78.80
2023-04-11T10:43:47.672Z,77.40
2023-04-11T10:45:19.121Z,81.70
2023-04-11T10:46:25.734Z,89.50
2023-04-11T10:47:28.979Z,87.40
2023-04-11T10:48:31.009Z,86.80
2023-04-11T10:49:35.038Z,88.20
2023-04-11T10:50:42.328Z,90.60
2023-04-11T10:51:44.098Z,90.40
2023-04-11T10:52:46.072Z,87.80
2023-04-11T10:53:47.857Z,91.30
2023-04-11T10:54:54.410Z,91.20
2023-04-11T10:55:56.390Z,91.60
2023-04-11T10:56:58.566Z,93.70
2023-04-11T10:58:04.220Z,94.60
2023-04-11T10:59:06.008Z,91.00
2023-04-11T11:00:13.929Z,89.50
2023-04-11T11:01:26.644Z,89.10
2023-04-11T11:02:39.721Z,85.50
2023-04-11T11:03:52.319Z,87.90
2023-04-11T11:04:54.643Z,85.40
2023-04-11T11:06:01.187Z,84.10
2023-04-11T11:07:04.970Z,84.60
2023-04-11T11:08:06.928Z,78.80
2023-04-11T11:09:26.355Z,73.50
2023-04-11T11:10:48.117Z,71.30
2023-04-11T11:12:25.449Z,74.20
2023-04-11T11:13:38.990Z,69.70
2023-04-11T11:14:45.896Z,68.80
2023-04-11T11:15:48.989Z,68.20
2023-04-11T11:16:50.794Z,67.50
2023-04-11T11:17:52.619Z,68.30
2023-04-11T11:18:55.957Z,66.40
2023-04-11T11:19:57.774Z,67.40
2023-04-11T11:20:59.723Z,66.30
2023-04-11T11:22:06.216Z,67.30
2023-04-11T11:23:09.614Z,67.40
2023-04-11T11:24:11.436Z,66.70
2023-04-11T11:25:13.624Z,67.80
2023-04-11T11:26:15.367Z,66.00
2023-04-11T11:27:24.860Z,68.40
2023-04-11T11:29:38.060Z,67.10
2023-04-11T11:30:55.063Z,67.50
2023-04-11T11:31:57.707Z,67.30
2023-04-11T11:32:59.751Z,65.70
2023-04-11T11:34:18.298Z,69.70
2023-04-11T11:35:24.212Z,69.40
2023-04-11T11:36:26.396Z,62.50
2023-04-11T11:37:28.154Z,64.10
2023-04-11T11:38:30.986Z,65.60
2023-04-11T11:39:33.961Z,63.20
2023-04-11T11:40:36.510Z,62.10
2023-04-11T11:41:39.029Z,57.60
2023-04-11T11:42:41.240Z,58.90
2023-04-11T11:43:43.241Z,59.10
2023-04-11T11:44:44.971Z,61.90
2023-04-11T11:45:47.052Z,59.50
2023-04-11T11:47:05.202Z,60.30
2023-04-11T11:48:07.275Z,58.30
2023-04-11T11:49:09.076Z,59.10
2023-04-11T11:50:12.095Z,61.00
2023-04-11T11:51:14.222Z,58.40
2023-04-11T11:52:37.621Z,60.00
2023-04-11T11:53:39.609Z,60.20
2023-04-11T11:54:45.989Z,57.20
2023-04-11T11:55:48.028Z,56.70
2023-04-11T11:56:52.673Z,57.00
2023-04-11T11:57:58.404Z,58.20
2023-04-11T11:59:00.187Z,57.30
2023-04-11T12:00:06.339Z,57.70
2023-04-11T12:01:08.660Z,59.80
2023-04-11T12:02:10.874Z,59.20
2023-04-11T12:03:18.199Z,58.60
2023-04-11T12:04:21.067Z,60.80
2023-04-11T12:05:30.511Z,59.00
2023-04-11T12:06:33.455Z,57.00
2023-04-11T12:07:37.884Z,56.90
2023-04-11T12:08:45.692Z,55.00
2023-04-11T12:09:49.133Z,55.00
2023-04-11T12:10:51.548Z,54.10
2023-04-11T12:11:55.028Z,53.00
2023-04-11T12:12:56.897Z,53.50
2023-04-11T12:13:59.038Z,53.10
2023-04-11T12:15:01.930Z,54.70
2023-04-11T12:16:03.867Z,55.50
2023-04-11T12:17:08.805Z,55.00
2023-04-11T12:18:10.624Z,52.80
2023-04-11T12:19:13.505Z,54.60
2023-04-11T12:20:15.872Z,54.60
2023-04-11T12:21:17.890Z,54.50
2023-04-11T12:22:19.623Z,54.60
2023-04-11T12:23:22.517Z,55.90
2023-04-11T12:24:24.253Z,54.10
2023-04-11T12:25:27.648Z,54.40
2023-04-11T12:26:29.822Z,55.10
2023-04-11T12:27:33.241Z,53.00
2023-04-11T12:28:34.913Z,52.50
2023-04-11T12:29:36.720Z,52.10
2023-04-11T12:30:38.790Z,52.30
2023-04-11T12:31:40.591Z,55.00
2023-04-11T12:32:43.006Z,53.10
2023-04-11T12:33:44.936Z,52.80
2023-04-11T12:34:46.652Z,53.70
2023-04-11T12:35:48.322Z,53.10
2023-04-11T12:36:50.266Z,52.90
2023-04-11T12:37:52.749Z,53.70
2023-04-11T12:38:54.573Z,52.80
2023-04-11T12:39:56.323Z,53.50
2023-04-11T12:41:19.711Z,53.30
2023-04-11T12:42:21.117Z,53.20
2023-04-11T12:43:25.977Z,54.70
2023-04-11T12:44:27.798Z,54.20
2023-04-11T12:45:29.564Z,53.70
2023-04-11T12:46:33.321Z,54.60
2023-04-11T12:47:36.060Z,52.80
2023-04-11T12:48:37.808Z,52.80
2023-04-11T12:49:40.485Z,54.90
2023-04-11T12:50:42.271Z,54.00
2023-04-11T12:51:43.940Z,55.30
2023-04-11T12:52:45.899Z,54.70
2023-04-11T12:53:47.573Z,54.60
2023-04-11T12:54:49.333Z,55.50
2023-04-11T12:55:51.032Z,53.80
2023-04-11T12:56:52.853Z,53.30
2023-04-11T12:57:54.549Z,53.70
2023-04-11T12:58:56.633Z,53.00
2023-04-11T12:59:59.234Z,54.00
2023-04-11T13:01:01.254Z,53.60
2023-04-11T13:02:03.247Z,53.80
2023-04-11T13:03:05.386Z,52.70
2023-04-11T13:04:07.459Z,53.30
2023-04-11T13:05:10.414Z,53.50
2023-04-11T13:06:12.123Z,53.70
2023-04-11T13:07:13.950Z,54.50
2023-04-11T13:08:15.953Z,52.50
2023-04-11T13:09:18.000Z,52.70
2023-04-11T13:10:19.684Z,52.80
2023-04-11T13:11:21.369Z,53.60
2023-04-11T13:12:23.250Z,53.60
2023-04-11T13:13:25.070Z,52.90
2023-04-11T13:14:26.770Z,52.50
2023-04-11T13:15:28.546Z,52.80
2023-04-11T13:16:31.214Z,53.30
2023-04-11T13:17:34.095Z,53.00
2023-04-11T13:18:35.804Z,52.10
2023-04-11T13:19:37.645Z,51.10
2023-04-11T13:20:39.354Z,52.40
2023-04-11T13:21:41.346Z,52.80
2023-04-11T13:22:43.485Z,51.20
2023-04-11T13:23:45.588Z,52.20
2023-04-11T13:24:47.311Z,52.80
2023-04-11T13:25:49.061Z,52.20
2023-04-11T13:26:50.893Z,51.50
2023-04-11T13:27:53.388Z,51.70
2023-04-11T13:28:55.439Z,51.80
2023-04-11T13:29:57.337Z,51.10
2023-04-11T13:30:59.068Z,50.80
2023-04-11T13:32:00.851Z,51.80
2023-04-11T13:33:03.920Z,52.70
2023-04-11T13:34:05.715Z,53.40
2023-04-11T13:35:08.195Z,52.60
2023-04-11T13:36:10.875Z,52.20
2023-04-11T13:37:12.689Z,52.40
2023-04-11T13:38:14.515Z,51.50
2023-04-11T13:39:16.301Z,51.50